createdAt,value
2019-03-24T00:00:02.560Z,304.13
2019-03-24T00:01:02.539Z,304.47
2019-03-24T00:02:02.544Z,304.76
2019-03-24T00:03:02.558Z,304.46
2019-03-24T00:04:02.574Z,305.19
2019-03-24T00:05:02.523Z,304.53
2019-03-24T00:06:02.504Z,304.83
2019-03-24T00:07:02.476Z,304.94
2019-03-24T00:08:02.471Z,304.47
2019-03-24T00:09:02.463Z,304.35
2019-03-24T00:10:02.485Z,304.78
2019-03-24T00:11:02.439Z,304.11
2019-03-24T00:12:02.421Z,304.61
2019-03-24T00:13:02.436Z,304.27
2019-03-24T00:14:02.440Z,304.50
2019-03-24T00:15:02.406Z,304.11
2019-03-24T00:16:02.413Z,304.25
2019-03-24T00:17:02.375Z,304.33
2019-03-24T00:18:02.383Z,303.90
2019-03-24T00:19:02.360Z,303.87
2019-03-24T00:20:02.360Z,304.08
2019-03-24T00:21:02.333Z,303.73
2019-03-24T00:22:02.337Z,304.01
2019-03-24T00:23:02.331Z,303.81
2019-03-24T00:24:02.313Z,303.87
2019-03-24T00:25:02.319Z,304.24
2019-03-24T00:26:02.354Z,303.74
2019-03-24T00:27:02.277Z,304.77
2019-03-24T00:28:02.251Z,304.19
2019-03-24T00:29:02.253Z,303.74
2019-03-24T00:30:02.229Z,303.65
2019-03-24T00:31:02.233Z,304.50
2019-03-24T00:32:02.231Z,303.51
2019-03-24T00:33:02.214Z,304.23
2019-03-24T00:34:02.190Z,303.73
2019-03-24T00:35:02.182Z,303.97
2019-03-24T00:36:03.098Z,303.94
2019-03-24T00:37:02.161Z,303.79
2019-03-24T00:38:02.184Z,304.11
2019-03-24T00:39:02.150Z,303.94
2019-03-24T00:40:02.127Z,304.28
2019-03-24T00:41:02.151Z,304.03
2019-03-24T00:42:03.102Z,304.33
2019-03-24T00:43:02.152Z,303.99
2019-03-24T00:44:02.087Z,303.74
2019-03-24T00:45:02.097Z,303.76
2019-03-24T00:46:02.060Z,303.70
2019-03-24T00:47:02.124Z,304.00
2019-03-24T00:48:02.056Z,303.10
2019-03-24T00:49:02.054Z,303.29
2019-03-24T00:50:02.029Z,303.80
2019-03-24T00:51:02.027Z,303.49
2019-03-24T00:52:02.012Z,303.65
2019-03-24T00:53:02.029Z,303.68
2019-03-24T00:54:01.978Z,303.64
2019-03-24T00:55:01.984Z,303.93
2019-03-24T00:56:01.983Z,303.89
2019-03-24T00:57:01.992Z,303.88
2019-03-24T00:58:01.972Z,303.15
2019-03-24T00:59:01.934Z,304.08
2019-03-24T01:00:01.946Z,303.50
2019-03-24T01:01:01.906Z,303.62
2019-03-24T01:02:01.917Z,303.84
2019-03-24T01:03:01.880Z,303.51
2019-03-24T01:04:01.902Z,303.77
2019-03-24T01:05:01.906Z,303.65
2019-03-24T01:06:01.994Z,303.46
2019-03-24T01:07:01.848Z,303.31
2019-03-24T01:08:01.838Z,303.60
2019-03-24T01:09:02.724Z,303.45
2019-03-24T01:10:02.180Z,303.72
2019-03-24T01:11:02.622Z,303.69
2019-03-24T01:12:02.630Z,303.64
2019-03-24T01:13:01.829Z,303.76
2019-03-24T01:14:03.271Z,304.51
2019-03-24T01:15:01.814Z,304.26
2019-03-24T01:16:01.803Z,304.56
2019-03-24T01:17:01.735Z,304.04
2019-03-24T01:18:01.732Z,303.53
2019-03-24T01:19:01.715Z,303.84
2019-03-24T01:20:01.778Z,303.07
2019-03-24T01:21:01.766Z,303.51
2019-03-24T01:22:01.979Z,303.26
2019-03-24T01:23:01.692Z,303.73
2019-03-24T01:24:01.681Z,303.88
2019-03-24T01:25:01.694Z,303.26
2019-03-24T01:26:01.652Z,303.82
2019-03-24T01:27:01.641Z,303.94
2019-03-24T01:28:01.628Z,303.78
2019-03-24T01:29:01.679Z,303.50
2019-03-24T01:30:01.777Z,303.55
2019-03-24T01:31:01.643Z,303.66
2019-03-24T01:32:01.622Z,303.56
2019-03-24T01:33:01.573Z,304.02
2019-03-24T01:34:01.580Z,304.06
2019-03-24T01:35:01.711Z,303.96
2019-03-24T01:36:01.554Z,303.97
2019-03-24T01:37:01.528Z,304.50
2019-03-24T01:38:01.588Z,304.06
2019-03-24T01:39:01.503Z,303.74
2019-03-24T01:40:01.499Z,304.55
2019-03-24T01:41:01.507Z,303.58
2019-03-24T01:42:01.472Z,303.66
2019-03-24T01:43:01.464Z,304.22
2019-03-24T01:44:01.444Z,303.74
2019-03-24T01:45:02.147Z,304.19
2019-03-24T01:46:01.473Z,304.09
2019-03-24T01:47:01.416Z,304.34
2019-03-24T01:48:01.418Z,304.12
2019-03-24T01:49:01.410Z,303.94
2019-03-24T01:50:01.599Z,304.04
2019-03-24T01:51:01.373Z,303.81
2019-03-24T01:52:01.422Z,303.51
2019-03-24T01:53:01.400Z,303.81
2019-03-24T01:54:13.091Z,304.15
2019-03-24T01:55:01.561Z,304.07
2019-03-24T01:56:01.487Z,304.30
2019-03-24T01:57:01.399Z,304.41
2019-03-24T01:58:01.808Z,303.74
2019-03-24T01:59:01.520Z,303.70
2019-03-24T02:00:02.133Z,304.60
2019-03-24T02:01:01.395Z,304.77
2019-03-24T02:02:01.315Z,304.65
2019-03-24T02:03:01.443Z,304.29
2019-03-24T02:04:01.256Z,303.81
2019-03-24T02:05:01.309Z,303.62
2019-03-24T02:06:02.132Z,304.65
2019-03-24T02:07:01.334Z,304.12
2019-03-24T02:08:01.303Z,304.56
2019-03-24T02:09:01.317Z,304.26
2019-03-24T02:10:01.214Z,304.31
2019-03-24T02:11:01.203Z,304.06
2019-03-24T02:12:01.175Z,303.73
2019-03-24T02:13:01.157Z,304.10
2019-03-24T02:14:01.631Z,303.53
2019-03-24T02:15:01.161Z,303.92
2019-03-24T02:16:09.041Z,303.69
2019-03-24T02:17:02.759Z,304.05
2019-03-24T02:18:01.113Z,303.79
2019-03-24T02:19:02.157Z,303.98
2019-03-24T02:20:01.093Z,303.63
2019-03-24T02:21:01.161Z,304.24
2019-03-24T02:22:01.631Z,304.25
2019-03-24T02:23:01.056Z,304.00
2019-03-24T02:24:02.162Z,304.02
2019-03-24T02:25:01.044Z,303.79
2019-03-24T02:26:01.039Z,304.01
2019-03-24T02:27:01.087Z,304.21
2019-03-24T02:28:02.179Z,304.09
2019-03-24T02:29:00.999Z,303.94
2019-03-24T02:30:01.003Z,304.02
2019-03-24T02:31:01.634Z,304.34
2019-03-24T02:32:01.639Z,304.43
2019-03-24T02:33:01.062Z,304.28
2019-03-24T02:34:00.935Z,304.05
2019-03-24T02:35:01.736Z,305.16
2019-03-24T02:36:01.758Z,303.86
2019-03-24T02:37:00.936Z,304.47
2019-03-24T02:38:01.638Z,304.08
2019-03-24T02:39:00.898Z,304.94
2019-03-24T02:40:00.891Z,304.45
2019-03-24T02:41:01.254Z,304.12
2019-03-24T02:42:01.647Z,304.49
2019-03-24T02:43:01.636Z,304.31
2019-03-24T02:44:01.729Z,303.42
2019-03-24T02:45:00.875Z,304.21
2019-03-24T02:46:00.868Z,303.98
2019-03-24T02:47:00.822Z,304.08
2019-03-24T02:48:00.870Z,304.03
2019-03-24T02:49:00.780Z,304.05
2019-03-24T02:50:00.806Z,303.81
2019-03-24T02:51:00.796Z,303.50
2019-03-24T02:52:00.873Z,303.92
2019-03-24T02:53:00.776Z,304.42
2019-03-24T02:54:00.884Z,304.36
2019-03-24T02:55:00.819Z,304.56
2019-03-24T02:56:00.742Z,304.74
2019-03-24T02:57:00.786Z,304.26
2019-03-24T02:58:00.832Z,304.72
2019-03-24T02:59:00.728Z,305.11
2019-03-24T03:00:01.646Z,305.30
2019-03-24T03:01:01.142Z,304.97
2019-03-24T03:02:01.138Z,304.73
2019-03-24T03:03:00.728Z,304.39
2019-03-24T03:04:00.608Z,305.09
2019-03-24T03:05:00.624Z,304.86
2019-03-24T03:06:00.635Z,304.84
2019-03-24T03:07:00.614Z,304.75
2019-03-24T03:08:00.638Z,304.64
2019-03-24T03:09:00.631Z,304.49
2019-03-24T03:10:00.601Z,304.83
2019-03-24T03:11:00.544Z,304.60
2019-03-24T03:12:00.730Z,304.53
2019-03-24T03:13:00.540Z,305.27
2019-03-24T03:14:00.613Z,304.42
2019-03-24T03:15:00.555Z,304.78
2019-03-24T03:16:00.535Z,304.54
2019-03-24T03:17:00.548Z,304.50
2019-03-24T03:18:00.572Z,304.63
2019-03-24T03:19:00.481Z,304.66
2019-03-24T03:20:00.585Z,304.88
2019-03-24T03:21:00.465Z,304.30
2019-03-24T03:22:00.476Z,304.13
2019-03-24T03:23:00.488Z,304.16
2019-03-24T03:24:00.461Z,304.57
2019-03-24T03:25:00.475Z,304.53
2019-03-24T03:26:00.396Z,304.85
2019-03-24T03:27:00.396Z,304.31
2019-03-24T03:28:00.416Z,304.42
2019-03-24T03:29:00.400Z,304.25
2019-03-24T03:30:00.983Z,304.28
2019-03-24T03:31:00.377Z,304.71
2019-03-24T03:32:00.361Z,304.42
2019-03-24T03:33:00.506Z,304.58
2019-03-24T03:34:05.154Z,304.74
2019-03-24T03:35:00.898Z,304.15
2019-03-24T03:36:00.315Z,305.35
2019-03-24T03:37:00.366Z,304.96
2019-03-24T03:38:00.297Z,304.47
2019-03-24T03:39:00.346Z,304.49
2019-03-24T03:40:00.734Z,304.70
2019-03-24T03:41:00.314Z,304.41
2019-03-24T03:42:00.257Z,304.54
2019-03-24T03:43:00.247Z,304.27
2019-03-24T03:44:00.250Z,304.22
2019-03-24T03:45:01.144Z,304.86
2019-03-24T03:46:00.204Z,304.51
2019-03-24T03:47:00.210Z,304.96
2019-03-24T03:48:00.276Z,304.65
2019-03-24T03:49:00.145Z,304.94
2019-03-24T03:50:00.449Z,304.74
2019-03-24T03:51:00.144Z,304.65
2019-03-24T03:52:00.138Z,304.66
2019-03-24T03:53:00.148Z,305.06
2019-03-24T03:54:11.689Z,304.92
2019-03-24T03:55:00.097Z,304.63
2019-03-24T03:56:00.303Z,304.75
2019-03-24T03:57:00.257Z,305.31
2019-03-24T03:58:00.074Z,304.95
2019-03-24T03:59:00.105Z,305.33
2019-03-24T04:00:00.164Z,305.34
2019-03-24T04:01:07.843Z,305.23
2019-03-24T04:02:00.029Z,305.27
2019-03-24T04:03:00.262Z,305.69
2019-03-24T04:04:00.854Z,304.46
2019-03-24T04:05:00.028Z,304.98
2019-03-24T04:06:00.053Z,304.50
2019-03-24T04:07:09.289Z,305.19
2019-03-24T04:07:59.946Z,304.82
2019-03-24T04:08:59.928Z,304.74
2019-03-24T04:09:59.915Z,304.79
2019-03-24T04:10:59.939Z,304.75
2019-03-24T04:11:59.894Z,305.04
2019-03-24T04:12:59.882Z,304.70
2019-03-24T04:13:59.874Z,304.77
2019-03-24T04:14:59.893Z,305.21
2019-03-24T04:15:59.888Z,304.65
2019-03-24T04:17:07.165Z,304.40
2019-03-24T04:18:00.817Z,304.82
2019-03-24T04:18:59.808Z,305.06
2019-03-24T04:19:59.801Z,305.14
2019-03-24T04:20:59.832Z,304.92
2019-03-24T04:21:59.790Z,305.56
2019-03-24T04:22:59.779Z,305.02
2019-03-24T04:23:59.775Z,305.17
2019-03-24T04:24:59.749Z,305.59
2019-03-24T04:25:59.786Z,304.73
2019-03-24T04:26:59.738Z,305.07
2019-03-24T04:27:59.716Z,304.84
2019-03-24T04:28:59.724Z,304.81
2019-03-24T04:29:59.713Z,304.86
2019-03-24T04:30:59.699Z,304.53
2019-03-24T04:31:59.717Z,304.78
2019-03-24T04:32:59.662Z,305.31
2019-03-24T04:33:59.654Z,305.31
2019-03-24T04:34:59.655Z,305.52
2019-03-24T04:35:59.690Z,305.03
2019-03-24T04:36:59.634Z,304.61
2019-03-24T04:37:59.616Z,304.81
2019-03-24T04:38:59.626Z,304.67
2019-03-24T04:39:59.595Z,304.78
2019-03-24T04:40:59.593Z,305.08
2019-03-24T04:41:59.600Z,304.95
2019-03-24T04:42:59.569Z,305.13
2019-03-24T04:43:59.558Z,305.30
2019-03-24T04:44:59.541Z,305.28
2019-03-24T04:45:59.528Z,305.18
2019-03-24T04:46:59.552Z,305.45
2019-03-24T04:47:59.525Z,305.35
2019-03-24T04:48:59.533Z,304.85
2019-03-24T04:49:59.512Z,304.75
2019-03-24T04:50:59.489Z,305.04
2019-03-24T04:51:59.538Z,304.83
2019-03-24T04:52:59.453Z,305.14
2019-03-24T04:53:59.496Z,304.68
2019-03-24T04:54:59.439Z,304.76
2019-03-24T04:55:59.432Z,305.47
2019-03-24T04:56:59.423Z,305.39
2019-03-24T04:57:59.508Z,304.89
2019-03-24T04:58:59.449Z,305.08
2019-03-24T04:59:59.425Z,305.28
2019-03-24T05:00:59.381Z,305.40
2019-03-24T05:01:59.464Z,305.21
2019-03-24T05:02:59.367Z,304.94
2019-03-24T05:03:59.409Z,304.94
2019-03-24T05:04:59.349Z,304.89
2019-03-24T05:05:59.335Z,305.38
2019-03-24T05:06:59.315Z,305.27
2019-03-24T05:07:59.366Z,305.26
2019-03-24T05:08:59.374Z,305.30
2019-03-24T05:09:59.328Z,305.07
2019-03-24T05:10:59.273Z,305.32
2019-03-24T05:11:59.346Z,305.30
2019-03-24T05:12:59.254Z,304.96
2019-03-24T05:13:59.290Z,305.38
2019-03-24T05:14:59.259Z,305.06
2019-03-24T05:15:59.220Z,304.95
2019-03-24T05:16:59.219Z,304.78
2019-03-24T05:17:59.203Z,305.50
2019-03-24T05:18:59.193Z,304.91
2019-03-24T05:19:59.249Z,304.65
2019-03-24T05:20:59.183Z,305.10
2019-03-24T05:21:59.430Z,305.26
2019-03-24T05:22:59.162Z,305.48
2019-03-24T05:23:59.183Z,304.92
2019-03-24T05:24:59.166Z,305.15
2019-03-24T05:25:59.745Z,305.34
2019-03-24T05:26:59.095Z,305.03
2019-03-24T05:27:59.169Z,305.02
2019-03-24T05:28:59.101Z,305.29
2019-03-24T05:29:59.078Z,305.49
2019-03-24T05:31:02.424Z,305.33
2019-03-24T05:31:59.066Z,305.22
2019-03-24T05:32:59.313Z,305.59
2019-03-24T05:34:00.448Z,305.72
2019-03-24T05:34:59.048Z,305.69
2019-03-24T05:35:59.287Z,306.02
2019-03-24T05:37:01.998Z,305.68
2019-03-24T05:37:59.238Z,305.78
2019-03-24T05:38:58.983Z,305.37
2019-03-24T05:39:58.978Z,305.69
2019-03-24T05:40:58.991Z,305.34
2019-03-24T05:41:59.037Z,305.18
2019-03-24T05:42:58.960Z,305.40
2019-03-24T05:44:00.942Z,305.50
2019-03-24T05:45:02.595Z,305.32
2019-03-24T05:45:59.424Z,305.40
2019-03-24T05:47:04.233Z,305.03
2019-03-24T05:48:03.677Z,305.34
2019-03-24T05:49:02.444Z,305.63
2019-03-24T05:50:02.310Z,305.33
2019-03-24T05:50:58.842Z,305.56
2019-03-24T05:51:58.840Z,305.32
2019-03-24T05:52:58.831Z,305.77
2019-03-24T05:53:58.849Z,305.88
2019-03-24T05:54:58.810Z,305.75
2019-03-24T05:55:58.822Z,305.45
2019-03-24T05:56:58.820Z,305.38
2019-03-24T05:57:59.022Z,305.76
2019-03-24T05:58:59.167Z,305.41
2019-03-24T06:00:00.071Z,305.96
2019-03-24T06:00:59.193Z,305.44
2019-03-24T06:01:59.129Z,305.12
2019-03-24T06:02:59.498Z,305.26
2019-03-24T06:03:58.873Z,305.68
2019-03-24T06:04:58.707Z,305.80
2019-03-24T06:05:59.055Z,305.61
2019-03-24T06:06:59.579Z,305.68
2019-03-24T06:08:00.990Z,305.61
2019-03-24T06:08:59.944Z,305.91
2019-03-24T06:10:01.416Z,305.60
2019-03-24T06:10:58.649Z,305.68
2019-03-24T06:11:58.623Z,305.68
2019-03-24T06:12:58.640Z,305.43
2019-03-24T06:13:58.613Z,305.50
2019-03-24T06:14:58.598Z,305.62
2019-03-24T06:15:58.597Z,305.45
2019-03-24T06:16:58.587Z,305.43
2019-03-24T06:17:58.566Z,305.42
2019-03-24T06:18:58.607Z,305.81
2019-03-24T06:19:58.549Z,305.78
2019-03-24T06:20:58.558Z,305.67
2019-03-24T06:21:58.530Z,305.51
2019-03-24T06:22:58.504Z,305.44
2019-03-24T06:23:58.553Z,305.41
2019-03-24T06:24:58.498Z,306.20
2019-03-24T06:25:58.513Z,306.49
2019-03-24T06:26:58.474Z,306.54
2019-03-24T06:27:58.622Z,306.43
2019-03-24T06:28:58.486Z,305.53
2019-03-24T06:29:58.449Z,306.42
2019-03-24T06:30:58.432Z,306.10
2019-03-24T06:31:58.429Z,305.86
2019-03-24T06:32:58.408Z,306.10
2019-03-24T06:33:58.422Z,305.75
2019-03-24T06:34:58.429Z,306.32
2019-03-24T06:35:58.422Z,306.15
2019-03-24T06:36:58.358Z,306.48
2019-03-24T06:37:58.364Z,306.35
2019-03-24T06:38:58.338Z,306.57
2019-03-24T06:39:58.369Z,306.78
2019-03-24T06:40:58.353Z,306.68
2019-03-24T06:41:58.302Z,306.20
2019-03-24T06:42:58.299Z,306.04
2019-03-24T06:43:58.311Z,306.10
2019-03-24T06:44:58.291Z,305.86
2019-03-24T06:45:58.289Z,305.85
2019-03-24T06:46:58.357Z,305.92
2019-03-24T06:47:58.460Z,305.98
2019-03-24T06:48:58.234Z,305.42
2019-03-24T06:49:58.260Z,306.32
2019-03-24T06:50:58.265Z,305.68
2019-03-24T06:51:58.199Z,305.99
2019-03-24T06:52:58.187Z,306.00
2019-03-24T06:53:58.193Z,305.36
2019-03-24T06:54:58.172Z,304.69
2019-03-24T06:55:58.164Z,304.90
2019-03-24T06:56:58.199Z,305.46
2019-03-24T06:57:58.180Z,305.02
2019-03-24T06:58:58.131Z,304.85
2019-03-24T06:59:58.181Z,304.98
2019-03-24T07:00:58.117Z,304.45
2019-03-24T07:01:58.110Z,304.93
2019-03-24T07:02:58.115Z,305.24
2019-03-24T07:03:58.117Z,304.80
2019-03-24T07:04:58.067Z,304.74
2019-03-24T07:05:58.079Z,304.73
2019-03-24T07:06:58.041Z,304.56
2019-03-24T07:07:58.076Z,305.18
2019-03-24T07:08:58.070Z,305.10
2019-03-24T07:09:58.141Z,304.59
2019-03-24T07:10:58.006Z,305.60
2019-03-24T07:12:00.103Z,305.92
2019-03-24T07:12:57.992Z,305.73
2019-03-24T07:13:57.987Z,305.06
2019-03-24T07:14:57.970Z,305.30
2019-03-24T07:15:57.959Z,304.52
2019-03-24T07:16:58.014Z,305.24
2019-03-24T07:18:07.926Z,304.34
2019-03-24T07:18:58.920Z,304.90
2019-03-24T07:19:57.917Z,304.55
2019-03-24T07:20:57.909Z,304.68
2019-03-24T07:21:57.891Z,305.09
2019-03-24T07:22:57.978Z,305.17
2019-03-24T07:23:57.882Z,304.15
2019-03-24T07:24:57.857Z,304.86
2019-03-24T07:25:57.878Z,304.96
2019-03-24T07:26:57.860Z,305.05
2019-03-24T07:27:57.919Z,304.98
2019-03-24T07:28:57.828Z,304.50
2019-03-24T07:29:58.734Z,303.52
2019-03-24T07:31:00.556Z,303.55
2019-03-24T07:31:57.785Z,303.54
2019-03-24T07:32:58.301Z,303.77
2019-03-24T07:33:57.824Z,304.30
2019-03-24T07:34:58.783Z,304.42
2019-03-24T07:35:57.831Z,303.86
2019-03-24T07:36:57.745Z,304.76
2019-03-24T07:37:57.743Z,304.04
2019-03-24T07:38:57.720Z,304.75
2019-03-24T07:39:57.754Z,304.04
2019-03-24T07:40:57.696Z,303.32
2019-03-24T07:41:57.677Z,303.41
2019-03-24T07:42:57.672Z,304.07
2019-03-24T07:43:57.854Z,303.65
2019-03-24T07:44:58.485Z,303.90
2019-03-24T07:45:57.637Z,303.66
2019-03-24T07:46:57.630Z,304.17
2019-03-24T07:47:57.681Z,304.32
2019-03-24T07:48:57.611Z,304.19
2019-03-24T07:49:57.615Z,303.50
2019-03-24T07:50:57.593Z,302.70
2019-03-24T07:51:57.654Z,302.83
2019-03-24T07:52:57.566Z,302.99
2019-03-24T07:53:57.609Z,303.28
2019-03-24T07:54:58.394Z,302.93
2019-03-24T07:55:57.545Z,303.06
2019-03-24T07:56:57.573Z,302.98
2019-03-24T07:57:57.516Z,303.99
2019-03-24T07:58:57.525Z,303.03
2019-03-24T07:59:57.508Z,303.42
2019-03-24T08:00:57.551Z,302.61
2019-03-24T08:01:57.484Z,303.69
2019-03-24T08:02:57.485Z,303.44
2019-03-24T08:03:57.459Z,302.58
2019-03-24T08:04:57.487Z,303.94
2019-03-24T08:05:57.448Z,303.22
2019-03-24T08:06:57.459Z,303.15
2019-03-24T08:07:57.446Z,303.31
2019-03-24T08:08:57.426Z,303.83
2019-03-24T08:09:57.396Z,303.64
2019-03-24T08:10:57.403Z,303.36
2019-03-24T08:11:57.402Z,303.06
2019-03-24T08:12:57.388Z,302.46
2019-03-24T08:13:57.364Z,303.06
2019-03-24T08:14:59.023Z,303.38
2019-03-24T08:15:57.358Z,303.42
2019-03-24T08:16:57.353Z,303.23
2019-03-24T08:17:57.313Z,302.85
2019-03-24T08:18:57.300Z,303.67
2019-03-24T08:19:57.364Z,303.05
2019-03-24T08:20:57.263Z,303.52
2019-03-24T08:21:57.429Z,303.59
2019-03-24T08:22:57.249Z,303.13
2019-03-24T08:23:57.299Z,303.70
2019-03-24T08:24:57.223Z,303.78
2019-03-24T08:25:57.220Z,303.28
2019-03-24T08:26:57.239Z,302.78
2019-03-24T08:27:57.229Z,302.67
2019-03-24T08:28:57.187Z,302.82
2019-03-24T08:29:57.213Z,302.40
2019-03-24T08:30:57.147Z,302.58
2019-03-24T08:31:57.143Z,302.94
2019-03-24T08:32:57.215Z,302.86
2019-03-24T08:33:57.128Z,302.86
2019-03-24T08:34:57.114Z,302.78
2019-03-24T08:35:57.144Z,302.89
2019-03-24T08:36:57.092Z,303.43
2019-03-24T08:37:57.298Z,303.15
2019-03-24T08:38:57.077Z,302.77
2019-03-24T08:39:57.076Z,302.91
2019-03-24T08:40:57.055Z,302.97
2019-03-24T08:41:57.092Z,302.98
2019-03-24T08:42:57.133Z,303.59
2019-03-24T08:43:57.023Z,302.10
2019-03-24T08:44:57.019Z,302.85
2019-03-24T08:45:57.040Z,303.96
2019-03-24T08:46:57.048Z,303.21
2019-03-24T08:47:57.010Z,302.77
2019-03-24T08:49:02.159Z,302.37
2019-03-24T08:49:56.945Z,302.36
2019-03-24T08:50:56.946Z,302.84
2019-03-24T08:51:56.953Z,302.28
2019-03-24T08:52:56.921Z,302.63
2019-03-24T08:53:56.907Z,302.02
2019-03-24T08:54:56.938Z,302.84
2019-03-24T08:55:56.893Z,302.69
2019-03-24T08:56:56.911Z,302.68
2019-03-24T08:57:56.868Z,302.73
2019-03-24T08:58:56.917Z,302.61
2019-03-24T08:59:56.844Z,302.16
2019-03-24T09:00:56.878Z,302.28
2019-03-24T09:01:56.822Z,302.59
2019-03-24T09:02:56.821Z,302.66
2019-03-24T09:03:56.821Z,302.32
2019-03-24T09:04:56.793Z,302.51
2019-03-24T09:05:56.814Z,301.75
2019-03-24T09:06:56.779Z,302.27
2019-03-24T09:07:56.767Z,302.32
2019-03-24T09:08:56.752Z,302.10
2019-03-24T09:09:56.735Z,302.58
2019-03-24T09:10:56.774Z,302.67
2019-03-24T09:11:57.064Z,302.85
2019-03-24T09:12:56.725Z,302.15
2019-03-24T09:13:57.429Z,302.18
2019-03-24T09:14:56.692Z,302.36
2019-03-24T09:15:56.673Z,302.38
2019-03-24T09:16:56.698Z,302.33
2019-03-24T09:17:56.671Z,302.43
2019-03-24T09:18:56.646Z,301.30
2019-03-24T09:19:56.663Z,302.06
2019-03-24T09:20:56.630Z,302.16
2019-03-24T09:21:56.656Z,302.08
2019-03-24T09:22:56.613Z,302.49
2019-03-24T09:23:56.603Z,301.69
2019-03-24T09:24:56.605Z,302.69
2019-03-24T09:25:56.565Z,302.01
2019-03-24T09:26:56.573Z,301.82
2019-03-24T09:27:56.595Z,302.26
2019-03-24T09:28:59.208Z,302.77
2019-03-24T09:29:56.538Z,302.78
2019-03-24T09:30:56.527Z,302.77
2019-03-24T09:31:56.519Z,302.63
2019-03-24T09:32:56.481Z,302.77
2019-03-24T09:33:56.534Z,302.18
2019-03-24T09:34:56.476Z,302.94
2019-03-24T09:35:56.462Z,301.77
2019-03-24T09:36:56.452Z,303.34
2019-03-24T09:37:56.472Z,303.66
2019-03-24T09:38:56.433Z,302.31
2019-03-24T09:39:56.412Z,303.80
2019-03-24T09:40:56.436Z,303.74
2019-03-24T09:41:56.396Z,303.02
2019-03-24T09:42:56.403Z,300.68
2019-03-24T09:43:56.414Z,302.10
2019-03-24T09:44:56.384Z,300.99
2019-03-24T09:45:56.400Z,301.51
2019-03-24T09:46:56.399Z,300.86
2019-03-24T09:47:56.335Z,300.66
2019-03-24T09:49:03.175Z,302.58
2019-03-24T09:49:57.310Z,302.12
2019-03-24T09:50:56.300Z,301.45
2019-03-24T09:51:56.288Z,298.57
2019-03-24T09:52:56.307Z,299.69
2019-03-24T09:53:56.291Z,301.21
2019-03-24T09:54:56.311Z,300.41
2019-03-24T09:55:56.259Z,300.94
2019-03-24T09:56:56.245Z,300.52
2019-03-24T09:57:56.226Z,300.77
2019-03-24T09:58:56.254Z,301.94
2019-03-24T09:59:56.192Z,300.79
2019-03-24T10:00:56.187Z,301.67
2019-03-24T10:01:56.278Z,301.99
2019-03-24T10:02:56.173Z,302.00
2019-03-24T10:03:56.186Z,301.33
2019-03-24T10:04:56.182Z,300.89
2019-03-24T10:05:56.129Z,301.52
2019-03-24T10:06:56.279Z,302.38
2019-03-24T10:08:10.597Z,300.47
2019-03-24T10:08:59.646Z,302.03
2019-03-24T10:09:56.356Z,301.27
2019-03-24T10:10:56.162Z,301.85
2019-03-24T10:11:56.077Z,300.98
2019-03-24T10:12:57.817Z,301.56
2019-03-24T10:13:56.319Z,301.69
2019-03-24T10:14:56.057Z,301.74
2019-03-24T10:15:56.939Z,301.42
2019-03-24T10:16:58.321Z,302.28
2019-03-24T10:17:56.323Z,301.35
2019-03-24T10:18:56.441Z,301.48
2019-03-24T10:19:56.010Z,300.74
2019-03-24T10:20:56.127Z,299.88
2019-03-24T10:21:59.841Z,300.30
2019-03-24T10:22:57.079Z,299.50
2019-03-24T10:23:58.321Z,301.64
2019-03-24T10:25:00.060Z,299.05
2019-03-24T10:26:03.922Z,299.79
2019-03-24T10:27:00.854Z,301.23
2019-03-24T10:28:00.319Z,300.07
2019-03-24T10:28:57.480Z,300.19
2019-03-24T10:30:02.946Z,300.81
2019-03-24T10:30:58.515Z,301.11
2019-03-24T10:31:58.324Z,301.00
2019-03-24T10:32:57.097Z,301.17
2019-03-24T10:34:00.038Z,301.74
2019-03-24T10:34:57.158Z,302.02
2019-03-24T10:36:21.846Z,302.16
2019-03-24T10:36:58.627Z,300.00
2019-03-24T10:37:57.471Z,301.54
2019-03-24T10:38:58.133Z,302.28
2019-03-24T10:39:57.829Z,301.48
2019-03-24T10:40:55.898Z,301.68
2019-03-24T10:41:58.163Z,300.69
2019-03-24T10:42:56.575Z,300.85
2019-03-24T10:43:58.832Z,302.41
2019-03-24T10:44:55.906Z,299.20
2019-03-24T10:45:57.331Z,301.52
2019-03-24T10:46:58.990Z,302.12
2019-03-24T10:47:58.074Z,301.23
2019-03-24T10:48:57.066Z,301.78
2019-03-24T10:49:58.854Z,301.51
2019-03-24T10:50:57.460Z,301.64
2019-03-24T10:51:57.330Z,298.52
2019-03-24T10:52:59.999Z,301.10
2019-03-24T10:53:59.828Z,301.40
2019-03-24T10:55:02.337Z,301.88
2019-03-24T10:55:57.837Z,302.96
2019-03-24T10:57:00.017Z,301.58
2019-03-24T10:57:57.910Z,302.01
2019-03-24T10:58:59.331Z,302.25
2019-03-24T10:59:56.833Z,301.06
2019-03-24T11:00:57.840Z,302.48
2019-03-24T11:01:57.958Z,301.38
2019-03-24T11:02:56.834Z,301.15
2019-03-24T11:03:55.901Z,301.91
2019-03-24T11:04:56.340Z,300.67
2019-03-24T11:05:57.538Z,302.33
2019-03-24T11:06:57.917Z,301.07
2019-03-24T11:07:58.337Z,302.05
2019-03-24T11:08:57.440Z,301.73
2019-03-24T11:09:57.488Z,300.17
2019-03-24T11:10:57.851Z,302.26
2019-03-24T11:11:57.842Z,301.61
2019-03-24T11:12:57.334Z,301.80
2019-03-24T11:13:56.951Z,300.88
2019-03-24T11:14:55.727Z,300.31
2019-03-24T11:15:55.583Z,299.20
2019-03-24T11:16:56.334Z,300.23
2019-03-24T11:17:56.957Z,302.83
2019-03-24T11:18:57.840Z,299.92
2019-03-24T11:19:58.847Z,302.13
2019-03-24T11:20:56.836Z,302.57
2019-03-24T11:21:56.837Z,302.47
2019-03-24T11:22:59.326Z,301.34
2019-03-24T11:39:28.494Z,299.47
2019-03-24T11:40:29.596Z,299.78
2019-03-24T11:42:55.333Z,297.55
2019-03-24T11:43:43.301Z,300.08
2019-03-24T11:44:40.493Z,299.73
2019-03-24T11:46:03.743Z,300.64
2019-03-24T11:46:39.831Z,301.20
2019-03-24T11:47:39.724Z,301.17
2019-03-24T11:48:48.858Z,299.22
2019-03-24T11:49:46.075Z,302.90
2019-03-24T11:50:40.633Z,298.17
2019-03-24T11:51:39.917Z,299.00
2019-03-24T11:52:39.619Z,300.86
2019-03-24T11:53:39.618Z,301.28
2019-03-24T11:54:39.618Z,300.01
2019-03-24T11:55:39.626Z,298.50
2019-03-24T11:56:39.627Z,300.59
2019-03-24T11:57:39.609Z,300.90
2019-03-24T11:58:39.685Z,302.21
2019-03-24T11:59:39.575Z,301.11
2019-03-24T12:00:39.545Z,302.53
2019-03-24T12:01:39.620Z,301.52
2019-03-24T12:02:39.560Z,302.81
2019-03-24T12:03:39.510Z,301.14
2019-03-24T12:04:39.564Z,302.00
2019-03-24T12:05:46.541Z,301.18
2019-03-24T12:06:42.367Z,302.22
2019-03-24T12:07:41.929Z,299.64
2019-03-24T12:08:42.871Z,298.67
2019-03-24T12:09:44.286Z,300.64
2019-03-24T12:10:40.326Z,300.06
2019-03-24T12:11:39.440Z,302.34
2019-03-24T12:12:40.321Z,298.25
2019-03-24T12:13:39.437Z,298.58
2019-03-24T12:14:39.395Z,299.42
2019-03-24T12:15:39.385Z,301.24
2019-03-24T12:16:39.429Z,301.11
2019-03-24T12:17:39.369Z,300.43
2019-03-24T12:18:39.437Z,298.20
2019-03-24T12:19:39.372Z,302.57
2019-03-24T12:20:39.328Z,301.74
2019-03-24T12:21:39.358Z,299.28
2019-03-24T12:22:39.321Z,298.30
2019-03-24T12:23:39.442Z,299.99
2019-03-24T12:24:39.340Z,298.31
2019-03-24T12:25:39.293Z,301.23
2019-03-24T12:26:39.258Z,301.47
2019-03-24T12:27:39.255Z,301.15
2019-03-24T12:28:39.312Z,300.50
2019-03-24T12:29:39.248Z,301.99
2019-03-24T12:30:39.218Z,302.19
2019-03-24T12:31:39.237Z,297.44
2019-03-24T12:32:39.206Z,300.82
2019-03-24T12:33:39.206Z,299.96
2019-03-24T12:34:39.230Z,300.94
2019-03-24T12:35:39.177Z,301.38
2019-03-24T12:36:39.170Z,300.16
2019-03-24T12:37:39.151Z,300.32
2019-03-24T12:38:39.142Z,299.07
2019-03-24T12:39:39.163Z,297.84
2019-03-24T12:40:39.131Z,301.76
2019-03-24T12:41:39.145Z,299.12
2019-03-24T12:42:39.099Z,299.21
2019-03-24T12:43:39.084Z,301.49
2019-03-24T12:44:39.084Z,301.71